Greenup, KY (41144)

6:23 AM EDT on September 30, 2014 (GMT -0400)
Flatwoods y | Change Station
CLOSE
Current Station
Personal Weather Station
Location: Flatwoods,, KY
Elevation: 656 ft
Nearby Weather Stations
Active Advisory: Special Statement

Elev 656 ft 38.52 °N, 82.71 °W | Updated 12 minutes ago

Fog
Fog
54.9 °F
Feels Like 54.9 °F
N
0.0
Wind Variable Wind from North

Today
High -- | Low -- °F
--% Chance of Precip.
Yesterday
High -- | Low -- °F
Precip. -- in
7:26 AM 7:15 PM
Waxing Crescent, 35% visible
Pressure 29.90 in
Visibility 0.2 miles
Clouds
Dew Point 54 °F
Humidity 97%
Rainfall 0.00 in
Snow Depth Not available.
UV Not available.
Pollen 3.90 out of 12
Air Quality Not available.
Flu Activity Not available.
METAR KHTS 300951Z 00000KT 1/4SM FG VV001 13/13 A2992 RMK AO2 SLP125 T01280128 $

More Conditions Fewer Conditions

Pressure 29.90 in
Visibility 0.2 miles
Clouds
Dew Point 54 °F
Humidity 97%
Rainfall 0.00 in
Snow Depth Not available.
UV Not available.
Pollen 3.90 out of 12
Air Quality Not available.
Flu Activity Not available.
METAR KHTS 300951Z 00000KT 1/4SM FG VV001 13/13 A2992 RMK AO2 SLP125 T01280128 $

More Conditions Fewer Conditions

10-Day Weather Forecast

Almanac

Astronomy

Sep. 30, 2014 Rise Set
Actual Time 7:26 AM EDT 7:15 PM EDT
Civil Twilight 6:59 AM EDT 7:42 PM EDT
Nautical Twilight 6:29 AM EDT 8:12 PM EDT
Astronomical Twilight 5:58 AM EDT 8:43 PM EDT
Moon 1:30 PM EDT 11:48 PM EDT
Length of Visible Light 12h 42m
Length of Day
11h 49m
Tomorrow will be 2m 29s shorter.
Waxing Crescent, 35% of the Moon is Illuminated
Today
Waxing Crescent
Oct 1
First Quarter
Oct 8
Full
Oct 15
Last Quarter
Oct 23
New

Today's Extremes

State Highs State Lows

Community

WunderPhotos

Upload Photos

1,757,610 photos uploaded!

WunderBlogs® & News

Nearby

Snow Depth

Station Depth Elevation
No new snow has been reported.

Earthquake Activity

City Distance Mag. Time & Date
No recent earthquake activity has been reported nearby.
Minimum magnitude displayed is 2.5.

Coastal Water Temperatures

Place Temperature
No Stations Reporting

Nearby Weather Stations